createdAt,value
2022-11-20T00:01:06.005Z,19.75
2022-11-20T00:02:28.525Z,20.27
2022-11-20T00:03:52.376Z,20.10
2022-11-20T00:05:20.014Z,22.80
2022-11-20T00:06:40.572Z,21.05
2022-11-20T00:08:02.771Z,21.80
2022-11-20T00:09:24.634Z,19.92
2022-11-20T00:10:47.199Z,19.63
2022-11-20T00:12:07.688Z,20.92
2022-11-20T00:13:34.039Z,20.52
2022-11-20T00:14:55.224Z,20.55
2022-11-20T00:16:17.295Z,19.63
2022-11-20T00:17:37.765Z,20.20
2022-11-20T00:19:05.164Z,21.02
2022-11-20T00:20:26.831Z,23.15
2022-11-20T00:21:47.595Z,22.90
2022-11-20T00:23:13.814Z,20.73
2022-11-20T00:24:38.945Z,21.38
2022-11-20T00:26:08.744Z,21.70
2022-11-20T00:27:31.902Z,21.05
2022-11-20T00:28:54.078Z,21.00
2022-11-20T00:30:15.380Z,20.70
2022-11-20T00:31:39.586Z,18.80
2022-11-20T00:33:01.405Z,20.58
2022-11-20T00:34:28.551Z,20.02
2022-11-20T00:35:49.236Z,20.60
2022-11-20T00:37:11.765Z,20.10
2022-11-20T00:38:32.582Z,19.88
2022-11-20T00:39:53.362Z,20.23
2022-11-20T00:41:17.919Z,20.05
2022-11-20T00:42:39.302Z,21.33
2022-11-20T00:44:05.661Z,19.30
2022-11-20T00:45:32.708Z,19.80
2022-11-20T00:47:03.446Z,19.27
2022-11-20T00:48:28.204Z,20.25
2022-11-20T00:49:51.194Z,18.55
2022-11-20T00:51:13.067Z,19.13
2022-11-20T00:52:34.204Z,19.60
2022-11-20T00:54:00.388Z,19.52
2022-11-20T00:55:28.223Z,19.27
2022-11-20T00:56:55.041Z,18.83
2022-11-20T00:58:20.663Z,18.85
2022-11-20T00:59:42.967Z,17.60
2022-11-20T01:01:06.898Z,17.98
2022-11-20T01:02:29.770Z,17.42
2022-11-20T01:03:52.977Z,17.88
2022-11-20T01:05:15.874Z,17.65
2022-11-20T01:06:40.471Z,19.05
2022-11-20T01:08:01.120Z,17.85
2022-11-20T01:09:24.977Z,18.70
2022-11-20T01:10:46.020Z,18.15
2022-11-20T01:12:14.574Z,18.63
2022-11-20T01:13:36.697Z,17.70
2022-11-20T01:14:59.505Z,18.35
2022-11-20T01:16:25.354Z,19.83
2022-11-20T01:17:46.626Z,21.00
2022-11-20T01:19:09.974Z,21.75
2022-11-20T01:20:36.721Z,20.23
2022-11-20T01:22:00.291Z,21.73
2022-11-20T01:23:21.058Z,21.20
2022-11-20T01:24:47.781Z,21.20
2022-11-20T01:26:12.872Z,20.08
2022-11-20T01:27:34.183Z,19.85
2022-11-20T01:29:03.266Z,20.63
2022-11-20T01:30:24.874Z,20.98
2022-11-20T01:31:45.535Z,19.63
2022-11-20T01:33:06.043Z,21.10
2022-11-20T01:34:34.789Z,19.60
2022-11-20T01:36:05.922Z,18.00
2022-11-20T01:37:33.105Z,17.27
2022-11-20T01:38:57.812Z,17.20
2022-11-20T01:40:18.628Z,16.95
2022-11-20T01:41:39.760Z,17.67
2022-11-20T01:43:16.114Z,19.50
2022-11-20T01:44:55.399Z,18.25
2022-11-20T01:46:18.164Z,17.77
2022-11-20T01:47:42.160Z,18.60
2022-11-20T01:49:04.698Z,18.58
2022-11-20T01:50:31.830Z,17.92
2022-11-20T01:52:00.370Z,17.63
2022-11-20T01:53:27.672Z,20.83
2022-11-20T01:54:50.558Z,21.23
2022-11-20T01:56:13.227Z,19.95
2022-11-20T01:57:38.858Z,18.60
2022-11-20T01:59:01.299Z,19.58
2022-11-20T02:00:22.692Z,19.27
2022-11-20T02:03:07.465Z,17.85
2022-11-20T02:04:32.609Z,18.95
2022-11-20T02:05:57.904Z,17.60
2022-11-20T02:07:20.788Z,19.15
2022-11-20T02:08:43.058Z,19.00
2022-11-20T02:10:06.509Z,18.77
2022-11-20T02:11:28.631Z,19.63
2022-11-20T02:12:50.558Z,18.20
2022-11-20T02:14:11.506Z,19.35
2022-11-20T02:15:34.326Z,18.33
2022-11-20T02:16:58.059Z,18.67
2022-11-20T02:18:21.831Z,18.50
2022-11-20T02:19:42.736Z,18.83
2022-11-20T02:21:09.616Z,19.95
2022-11-20T02:22:36.494Z,19.67
2022-11-20T02:24:06.019Z,20.50
2022-11-20T02:25:35.352Z,20.85
2022-11-20T02:28:21.820Z,18.98
2022-11-20T02:29:45.952Z,18.90
2022-11-20T02:31:06.584Z,18.83
2022-11-20T02:32:34.489Z,19.77
2022-11-20T02:33:58.901Z,19.55
2022-11-20T02:35:45.753Z,18.83
2022-11-20T02:37:07.039Z,19.40
2022-11-20T02:38:30.480Z,19.85
2022-11-20T02:39:52.724Z,18.83
2022-11-20T02:41:13.082Z,19.30
2022-11-20T02:42:33.720Z,19.20
2022-11-20T02:43:54.532Z,21.25
2022-11-20T02:45:15.085Z,22.70
2022-11-20T02:46:36.219Z,22.13
2022-11-20T02:47:57.148Z,21.52
2022-11-20T02:49:18.042Z,21.92
2022-11-20T02:50:39.511Z,20.17
2022-11-20T02:52:00.120Z,20.85
2022-11-20T02:53:20.485Z,20.20
2022-11-20T02:54:41.529Z,20.48
2022-11-20T02:56:03.847Z,21.40
2022-11-20T02:57:24.141Z,20.83
2022-11-20T02:58:45.750Z,20.30
2022-11-20T03:00:07.603Z,21.48
2022-11-20T03:01:28.218Z,21.10
2022-11-20T03:02:48.920Z,20.90
2022-11-20T03:04:09.436Z,21.65
2022-11-20T03:05:29.992Z,19.45
2022-11-20T03:06:50.709Z,20.60
2022-11-20T03:08:11.923Z,21.67
2022-11-20T03:09:32.522Z,20.70
2022-11-20T03:10:53.222Z,20.50
2022-11-20T03:12:15.205Z,20.80
2022-11-20T03:13:36.056Z,20.52
2022-11-20T03:14:56.748Z,20.90
2022-11-20T03:16:19.498Z,20.23
2022-11-20T03:17:39.934Z,20.55
2022-11-20T03:19:00.615Z,19.92
2022-11-20T03:20:21.141Z,21.58
2022-11-20T03:21:41.509Z,20.60
2022-11-20T03:23:03.003Z,21.70
2022-11-20T03:24:23.364Z,20.27
2022-11-20T03:25:43.848Z,21.25
2022-11-20T03:27:04.668Z,20.27
2022-11-20T03:28:26.549Z,20.73
2022-11-20T03:29:46.733Z,19.83
2022-11-20T03:31:09.286Z,20.55
2022-11-20T03:32:30.254Z,20.50
2022-11-20T03:33:51.343Z,21.90
2022-11-20T03:35:11.870Z,19.63
2022-11-20T03:36:32.890Z,21.50
2022-11-20T03:37:53.743Z,20.75
2022-11-20T03:39:14.456Z,21.40
2022-11-20T03:40:35.913Z,21.25
2022-11-20T03:43:16.652Z,20.88
2022-11-20T03:44:38.289Z,19.75
2022-11-20T03:45:59.145Z,20.55
2022-11-20T03:47:19.837Z,21.08
2022-11-20T03:48:40.454Z,22.02
2022-11-20T03:50:00.917Z,22.10
2022-11-20T03:51:23.366Z,22.17
2022-11-20T03:52:44.031Z,23.20
2022-11-20T03:54:08.557Z,23.33
2022-11-20T03:55:29.093Z,23.80
2022-11-20T03:56:49.765Z,23.48
2022-11-20T03:58:10.588Z,22.30
2022-11-20T03:59:31.131Z,24.17
2022-11-20T04:00:53.216Z,23.45
2022-11-20T04:03:34.142Z,21.85
2022-11-20T04:04:55.024Z,22.65
2022-11-20T04:06:17.762Z,24.45
2022-11-20T04:07:38.521Z,22.40
2022-11-20T04:08:59.665Z,24.67
2022-11-20T04:10:19.860Z,26.60
2022-11-20T04:11:41.260Z,27.80
2022-11-20T04:13:01.930Z,28.13
2022-11-20T04:14:23.031Z,29.45
2022-11-20T04:15:43.890Z,28.63
2022-11-20T04:17:06.051Z,32.42
2022-11-20T04:18:26.768Z,30.65
2022-11-20T04:19:47.728Z,30.23
2022-11-20T04:21:08.659Z,30.52
2022-11-20T04:22:30.556Z,32.35
2022-11-20T04:25:11.281Z,32.45
2022-11-20T04:26:31.996Z,30.33
2022-11-20T04:27:53.748Z,31.25
2022-11-20T04:29:14.452Z,31.02
2022-11-20T04:30:34.875Z,33.35
2022-11-20T04:31:55.501Z,29.88
2022-11-20T04:33:18.710Z,28.97
2022-11-20T04:34:39.169Z,27.08
2022-11-20T04:36:02.431Z,29.73
2022-11-20T04:37:22.964Z,27.23
2022-11-20T04:38:43.763Z,26.70
2022-11-20T04:40:04.629Z,25.00
2022-11-20T04:41:26.749Z,25.13
2022-11-20T04:42:47.448Z,24.58
2022-11-20T04:44:07.900Z,23.35
2022-11-20T04:45:28.524Z,23.80
2022-11-20T04:46:49.214Z,24.38
2022-11-20T04:48:10.001Z,24.52
2022-11-20T04:49:31.937Z,23.85
2022-11-20T04:50:53.335Z,24.67
2022-11-20T04:52:14.309Z,26.02
2022-11-20T04:53:34.756Z,24.17
2022-11-20T04:54:55.505Z,24.20
2022-11-20T04:56:16.521Z,23.20
2022-11-20T04:57:36.989Z,23.75
2022-11-20T04:59:01.385Z,23.30
2022-11-20T05:00:22.012Z,22.70
2022-11-20T05:01:42.762Z,22.33
2022-11-20T05:03:03.718Z,22.83
2022-11-20T05:04:24.339Z,21.95
2022-11-20T05:05:46.064Z,23.58
2022-11-20T05:07:06.696Z,25.25
2022-11-20T05:08:27.379Z,23.67
2022-11-20T05:09:48.096Z,22.55
2022-11-20T05:11:10.952Z,22.42
2022-11-20T05:12:32.501Z,22.40
2022-11-20T05:13:53.512Z,23.40
2022-11-20T05:15:14.311Z,24.05
2022-11-20T05:16:35.763Z,23.15
2022-11-20T05:17:56.055Z,23.25
2022-11-20T05:19:16.673Z,21.63
2022-11-20T05:20:36.954Z,22.52
2022-11-20T05:21:58.979Z,21.77
2022-11-20T05:23:19.428Z,23.52
2022-11-20T05:24:39.980Z,22.52
2022-11-20T05:26:01.418Z,22.13
2022-11-20T05:27:21.882Z,20.75
2022-11-20T05:28:42.632Z,21.77
2022-11-20T05:30:03.778Z,23.52
2022-11-20T05:31:28.035Z,22.83
2022-11-20T05:32:49.097Z,22.95
2022-11-20T05:34:09.549Z,23.08
2022-11-20T05:35:29.929Z,22.73
2022-11-20T05:36:50.304Z,22.25
2022-11-20T05:38:12.466Z,23.70
2022-11-20T05:39:32.967Z,23.30
2022-11-20T05:40:53.653Z,22.67
2022-11-20T05:42:13.999Z,21.90
2022-11-20T05:43:34.670Z,23.30
2022-11-20T05:44:55.208Z,22.20
2022-11-20T05:46:17.328Z,22.00
2022-11-20T05:47:37.879Z,23.35
2022-11-20T05:48:59.656Z,21.58
2022-11-20T05:50:20.081Z,22.92
2022-11-20T05:51:40.294Z,23.83
2022-11-20T05:53:00.845Z,22.55
2022-11-20T05:54:22.852Z,22.25
2022-11-20T05:55:43.606Z,24.10
2022-11-20T05:57:04.329Z,22.55
2022-11-20T05:58:24.875Z,23.73
2022-11-20T05:59:45.475Z,22.93
2022-11-20T06:01:08.058Z,23.42
2022-11-20T06:02:28.729Z,23.45
2022-11-20T06:03:49.914Z,24.08
2022-11-20T06:05:10.615Z,25.10
2022-11-20T06:06:31.111Z,24.10
2022-11-20T06:07:51.741Z,24.00
2022-11-20T06:09:12.465Z,22.52
2022-11-20T06:10:34.542Z,23.17
2022-11-20T06:11:54.833Z,24.50
2022-11-20T06:13:15.129Z,25.02
2022-11-20T06:14:35.814Z,24.20
2022-11-20T06:15:56.643Z,25.25
2022-11-20T06:17:17.177Z,23.55
2022-11-20T06:18:38.331Z,23.58
2022-11-20T06:19:58.958Z,24.15
2022-11-20T06:21:21.823Z,23.92
2022-11-20T06:22:42.516Z,25.42
2022-11-20T06:24:03.352Z,24.65
2022-11-20T06:25:24.002Z,22.48
2022-11-20T06:26:46.110Z,24.05
2022-11-20T06:28:06.520Z,25.15
2022-11-20T06:29:31.410Z,25.33
2022-11-20T06:30:54.374Z,26.80
2022-11-20T06:32:15.023Z,25.35
2022-11-20T06:33:35.322Z,25.17
2022-11-20T06:34:55.641Z,25.02
2022-11-20T06:36:19.264Z,23.92
2022-11-20T06:37:40.029Z,23.98
2022-11-20T06:39:00.677Z,23.88
2022-11-20T06:40:21.284Z,25.20
2022-11-20T06:41:41.917Z,23.63
2022-11-20T06:43:03.829Z,24.97
2022-11-20T06:44:24.470Z,24.30
2022-11-20T06:45:44.839Z,23.67
2022-11-20T06:47:05.412Z,25.90
2022-11-20T06:48:27.357Z,23.77
2022-11-20T06:49:47.852Z,24.25
2022-11-20T06:51:08.823Z,26.80
2022-11-20T06:52:29.016Z,24.27
2022-11-20T06:53:50.075Z,23.63
2022-11-20T06:55:10.776Z,23.90
2022-11-20T06:56:31.489Z,24.70
2022-11-20T06:57:55.852Z,24.02
2022-11-20T06:59:17.993Z,27.00
2022-11-20T07:00:38.719Z,25.50
2022-11-20T07:01:59.743Z,24.80
2022-11-20T07:03:20.162Z,26.92
2022-11-20T07:04:40.952Z,26.27
2022-11-20T07:06:02.112Z,26.07
2022-11-20T07:07:22.540Z,27.88
2022-11-20T07:08:42.942Z,25.83
2022-11-20T07:10:03.719Z,28.37
2022-11-20T07:11:25.328Z,26.15
2022-11-20T07:12:50.685Z,26.85
2022-11-20T07:14:11.022Z,26.35
2022-11-20T07:15:32.812Z,27.70
2022-11-20T07:16:53.270Z,27.42
2022-11-20T07:18:14.160Z,28.65
2022-11-20T07:19:34.544Z,24.02
2022-11-20T07:20:55.090Z,26.55
2022-11-20T07:22:15.864Z,25.80
2022-11-20T07:23:36.921Z,26.30
2022-11-20T07:24:57.338Z,25.30
2022-11-20T07:26:18.231Z,25.70
2022-11-20T07:27:38.749Z,24.30
2022-11-20T07:28:59.251Z,27.90
2022-11-20T07:30:20.174Z,24.13
2022-11-20T07:31:41.808Z,26.80
2022-11-20T07:33:02.552Z,26.42
2022-11-20T07:34:23.434Z,26.50
2022-11-20T07:35:43.919Z,25.75
2022-11-20T07:37:10.074Z,26.15
2022-11-20T07:38:30.954Z,25.65
2022-11-20T07:39:51.467Z,25.20
2022-11-20T07:41:12.188Z,27.30
2022-11-20T07:42:32.872Z,25.75
2022-11-20T07:43:54.640Z,24.63
2022-11-20T07:45:15.206Z,28.15
2022-11-20T07:46:35.968Z,26.30
2022-11-20T07:47:57.870Z,24.92
2022-11-20T07:49:19.723Z,25.15
2022-11-20T07:50:40.382Z,27.33
2022-11-20T07:52:04.676Z,27.25
2022-11-20T07:53:25.985Z,27.40
2022-11-20T07:54:46.116Z,27.63
2022-11-20T07:56:08.189Z,24.58
2022-11-20T07:57:28.702Z,28.05
2022-11-20T07:58:49.291Z,25.20
2022-11-20T08:00:11.693Z,27.38
2022-11-20T08:01:32.605Z,26.23
2022-11-20T08:02:53.252Z,27.17
2022-11-20T08:04:15.218Z,27.25
2022-11-20T08:05:35.720Z,24.77
2022-11-20T08:06:56.110Z,26.75
2022-11-20T08:08:16.681Z,25.98
2022-11-20T08:09:37.127Z,28.30
2022-11-20T08:10:58.016Z,25.25
2022-11-20T08:12:20.247Z,26.95
2022-11-20T08:13:41.111Z,25.95
2022-11-20T08:15:01.640Z,27.67
2022-11-20T08:16:22.270Z,26.02
2022-11-20T08:17:48.914Z,27.67
2022-11-20T08:19:19.276Z,26.92
2022-11-20T08:20:40.091Z,28.10
2022-11-20T08:22:00.773Z,27.33
2022-11-20T08:23:21.413Z,28.20
2022-11-20T08:24:41.998Z,27.80
2022-11-20T08:26:02.514Z,26.97
2022-11-20T08:27:22.969Z,27.85
2022-11-20T08:28:43.325Z,29.48
2022-11-20T08:30:04.922Z,29.08
2022-11-20T08:31:26.844Z,29.30
2022-11-20T08:32:47.400Z,30.80
2022-11-20T08:34:09.842Z,26.23
2022-11-20T08:35:35.428Z,26.40
2022-11-20T08:36:56.217Z,28.33
2022-11-20T08:38:16.892Z,28.65
2022-11-20T08:39:37.373Z,26.40
2022-11-20T08:40:58.489Z,27.60
2022-11-20T08:42:19.095Z,27.80
2022-11-20T08:43:40.267Z,27.63
2022-11-20T08:45:00.769Z,28.92
2022-11-20T08:46:21.688Z,27.58
2022-11-20T08:47:42.311Z,28.17
2022-11-20T08:49:03.012Z,28.65
2022-11-20T08:50:23.947Z,28.65
2022-11-20T08:51:45.978Z,30.20
2022-11-20T08:53:06.458Z,28.58
2022-11-20T08:54:27.463Z,29.02
2022-11-20T08:55:47.772Z,29.30
2022-11-20T08:57:08.603Z,29.63
2022-11-20T08:58:30.943Z,28.25
2022-11-20T09:00:05.694Z,29.35
2022-11-20T09:01:27.211Z,27.98
2022-11-20T09:02:48.019Z,29.40
2022-11-20T09:04:08.383Z,30.52
2022-11-20T09:05:30.200Z,30.67
2022-11-20T09:06:52.278Z,28.23
2022-11-20T09:08:12.992Z,31.27
2022-11-20T09:09:33.437Z,29.75
2022-11-20T09:10:54.241Z,30.98
2022-11-20T09:12:14.909Z,29.88
2022-11-20T09:13:36.637Z,29.38
2022-11-20T09:16:17.286Z,29.65
2022-11-20T09:17:37.793Z,30.73
2022-11-20T09:19:28.159Z,31.13
2022-11-20T09:20:38.757Z,29.67
2022-11-20T09:22:00.490Z,29.70
2022-11-20T09:23:20.969Z,29.05
2022-11-20T09:24:41.718Z,28.50
2022-11-20T09:26:03.891Z,29.90
2022-11-20T09:27:24.338Z,29.40
2022-11-20T09:28:45.041Z,29.38
2022-11-20T09:30:06.834Z,29.42
2022-11-20T09:32:47.827Z,30.38
2022-11-20T09:34:08.436Z,32.08
2022-11-20T09:35:28.894Z,30.88
2022-11-20T09:36:49.041Z,32.10
2022-11-20T09:38:11.223Z,30.95
2022-11-20T09:39:33.018Z,31.73
2022-11-20T09:40:58.030Z,31.60
2022-11-20T09:42:27.638Z,30.95
2022-11-20T09:43:52.882Z,32.45
2022-11-20T09:45:18.615Z,33.38
2022-11-20T09:46:44.650Z,33.80
2022-11-20T09:48:14.580Z,30.48
2022-11-20T09:49:46.939Z,32.05
2022-11-20T09:51:14.288Z,34.90
2022-11-20T09:52:39.141Z,33.67
2022-11-20T09:54:08.611Z,33.97
2022-11-20T09:55:30.386Z,30.75
2022-11-20T09:56:52.693Z,32.92
2022-11-20T09:58:17.300Z,33.92
2022-11-20T09:59:40.329Z,33.78
2022-11-20T10:01:04.879Z,32.28
2022-11-20T10:02:29.769Z,33.35
2022-11-20T10:03:57.188Z,32.92
2022-11-20T10:05:19.961Z,34.83
2022-11-20T10:06:45.152Z,32.42
2022-11-20T10:08:14.899Z,31.63
2022-11-20T10:09:39.030Z,31.85
2022-11-20T10:11:06.006Z,33.03
2022-11-20T10:12:34.721Z,33.00
2022-11-20T10:14:03.443Z,32.42
2022-11-20T10:15:30.644Z,33.22
2022-11-20T10:16:59.934Z,31.83
2022-11-20T10:18:31.849Z,31.70
2022-11-20T10:21:26.735Z,33.47
2022-11-20T10:22:58.066Z,32.90
2022-11-20T10:24:37.690Z,33.20
2022-11-20T10:26:02.737Z,34.83
2022-11-20T10:27:42.543Z,33.67
2022-11-20T10:29:11.153Z,32.30
2022-11-20T10:30:36.023Z,36.05
2022-11-20T10:32:00.747Z,38.05
2022-11-20T10:33:23.892Z,35.70
2022-11-20T10:34:50.188Z,35.38
2022-11-20T10:36:17.011Z,38.05
2022-11-20T10:37:38.962Z,33.47
2022-11-20T10:39:06.400Z,33.38
2022-11-20T10:40:33.432Z,37.05
2022-11-20T10:41:54.035Z,38.05
2022-11-20T10:43:17.547Z,35.35
2022-11-20T10:44:40.732Z,35.67
2022-11-20T10:46:05.643Z,38.33
2022-11-20T10:47:26.792Z,38.90
2022-11-20T10:48:47.584Z,37.90
2022-11-20T10:50:13.810Z,37.28
2022-11-20T10:51:39.646Z,39.60
2022-11-20T10:53:06.281Z,38.30
2022-11-20T10:54:33.451Z,41.33
2022-11-20T10:56:01.470Z,39.63
2022-11-20T10:57:32.601Z,39.10
2022-11-20T10:59:04.555Z,39.75
2022-11-20T11:00:25.262Z,42.05
2022-11-20T11:01:45.686Z,41.05
2022-11-20T11:03:19.041Z,36.85
2022-11-20T11:04:43.589Z,37.72
2022-11-20T11:06:09.064Z,37.17
2022-11-20T11:07:34.939Z,39.75
2022-11-20T11:08:57.789Z,36.72
2022-11-20T11:10:19.997Z,39.63
2022-11-20T11:11:41.866Z,39.22
2022-11-20T11:13:02.499Z,40.80
2022-11-20T11:14:23.133Z,42.17
2022-11-20T11:15:44.194Z,43.50
2022-11-20T11:17:04.740Z,41.03
2022-11-20T11:18:26.847Z,40.40
2022-11-20T11:21:07.348Z,42.65
2022-11-20T11:22:30.023Z,40.33
2022-11-20T11:24:13.477Z,41.65
2022-11-20T11:25:39.695Z,42.67
2022-11-20T11:27:03.099Z,42.78
2022-11-20T11:28:24.176Z,44.88
2022-11-20T11:29:45.223Z,45.15
2022-11-20T11:31:05.985Z,41.17
2022-11-20T11:32:26.315Z,43.22
2022-11-20T11:33:46.644Z,43.80
2022-11-20T11:35:20.303Z,42.97
2022-11-20T11:36:41.577Z,43.40
2022-11-20T11:38:07.193Z,42.20
2022-11-20T11:39:28.603Z,40.30
2022-11-20T11:42:13.572Z,44.97
2022-11-20T11:43:37.939Z,44.47
2022-11-20T11:45:00.556Z,44.63
2022-11-20T11:46:32.811Z,46.88
2022-11-20T11:47:54.492Z,44.78
2022-11-20T11:50:37.433Z,44.55
2022-11-20T11:52:04.754Z,44.63
2022-11-20T11:53:27.509Z,45.22
2022-11-20T11:54:52.530Z,45.83
2022-11-20T11:56:14.975Z,44.20
2022-11-20T11:57:42.657Z,43.03
2022-11-20T11:59:07.080Z,44.65
2022-11-20T12:00:27.984Z,44.92
2022-11-20T12:01:52.066Z,46.35
2022-11-20T12:03:17.086Z,45.88
2022-11-20T12:04:45.626Z,46.72
2022-11-20T12:06:11.454Z,43.97
2022-11-20T12:07:46.427Z,45.47
2022-11-20T12:09:11.087Z,45.85
2022-11-20T12:10:41.687Z,44.80
2022-11-20T12:12:08.966Z,46.15
2022-11-20T12:13:38.521Z,46.47
2022-11-20T12:14:59.773Z,48.58
2022-11-20T12:17:41.374Z,45.88
2022-11-20T12:19:02.049Z,46.33
2022-11-20T12:20:27.244Z,47.95
2022-11-20T12:22:00.035Z,47.08
2022-11-20T12:23:27.448Z,49.95
2022-11-20T12:24:55.052Z,43.97
2022-11-20T12:26:24.211Z,46.05
2022-11-20T12:27:52.888Z,47.42
2022-11-20T12:29:29.128Z,48.30
2022-11-20T12:30:59.645Z,45.85
2022-11-20T12:32:43.841Z,47.40
2022-11-20T12:34:14.478Z,46.83
2022-11-20T12:35:45.784Z,49.05
2022-11-20T12:37:15.217Z,48.40
2022-11-20T12:39:09.255Z,49.97
2022-11-20T12:40:36.703Z,50.95
2022-11-20T12:42:11.191Z,48.75
2022-11-20T12:43:34.495Z,48.75
2022-11-20T12:45:21.308Z,49.88
2022-11-20T12:46:46.045Z,46.58
2022-11-20T12:48:46.272Z,48.28
2022-11-20T12:50:12.283Z,47.80
2022-11-20T12:51:45.525Z,45.20
2022-11-20T12:53:08.766Z,45.42
2022-11-20T12:55:04.252Z,44.88
2022-11-20T12:56:32.541Z,44.80
2022-11-20T12:57:57.674Z,44.80
2022-11-20T12:59:28.862Z,43.53
2022-11-20T13:00:57.418Z,47.10
2022-11-20T13:02:26.759Z,47.08
2022-11-20T13:03:51.985Z,47.05
2022-11-20T13:05:21.091Z,47.83
2022-11-20T13:06:41.669Z,47.50
2022-11-20T13:08:02.800Z,45.63
2022-11-20T13:09:24.214Z,43.90
2022-11-20T13:10:50.744Z,47.58
2022-11-20T13:12:16.432Z,46.97
2022-11-20T13:13:44.374Z,50.28
2022-11-20T13:15:14.826Z,48.55
2022-11-20T13:16:39.597Z,47.53
2022-11-20T13:18:01.989Z,50.33
2022-11-20T13:19:23.048Z,52.70
2022-11-20T13:20:44.951Z,47.88
2022-11-20T13:22:05.276Z,47.83
2022-11-20T13:23:26.978Z,50.72
2022-11-20T13:24:51.803Z,50.60
2022-11-20T13:26:18.629Z,52.33
2022-11-20T13:27:48.130Z,53.25
2022-11-20T13:29:11.933Z,52.90
2022-11-20T13:30:32.948Z,51.88
2022-11-20T13:32:07.731Z,53.22
2022-11-20T13:33:32.586Z,57.15
2022-11-20T13:34:53.520Z,55.55
2022-11-20T13:36:24.373Z,52.13
2022-11-20T13:37:45.156Z,57.20
2022-11-20T13:39:05.589Z,55.10
2022-11-20T13:40:26.497Z,53.42
2022-11-20T13:41:55.644Z,57.10
2022-11-20T13:43:23.479Z,53.72
2022-11-20T13:44:47.754Z,57.42
2022-11-20T13:46:10.205Z,58.40
2022-11-20T13:47:32.207Z,60.03
2022-11-20T13:48:53.585Z,54.67
2022-11-20T13:50:15.502Z,61.08
2022-11-20T13:51:42.093Z,60.55
2022-11-20T13:53:09.113Z,56.42
2022-11-20T13:54:53.647Z,60.65
2022-11-20T13:56:23.095Z,56.88
2022-11-20T13:58:06.801Z,56.53
2022-11-20T13:59:37.172Z,51.65
2022-11-20T14:00:59.469Z,61.85
2022-11-20T14:02:22.056Z,57.72
2022-11-20T14:04:05.028Z,55.00
2022-11-20T14:06:46.560Z,56.72
2022-11-20T14:08:10.378Z,61.38
2022-11-20T14:09:32.948Z,59.28
2022-11-20T14:11:04.141Z,59.10
2022-11-20T14:12:29.714Z,63.67
2022-11-20T14:13:59.294Z,61.03
2022-11-20T14:15:27.294Z,60.97
2022-11-20T14:16:49.492Z,55.78
2022-11-20T14:18:14.766Z,56.38
2022-11-20T14:19:44.909Z,57.28
2022-11-20T14:21:05.796Z,64.05
2022-11-20T14:22:27.338Z,59.17
2022-11-20T14:23:47.823Z,55.75
2022-11-20T14:25:20.397Z,57.83
2022-11-20T14:26:43.387Z,58.08
2022-11-20T14:28:04.812Z,54.65
2022-11-20T14:30:49.255Z,57.90
2022-11-20T14:32:10.186Z,60.53
2022-11-20T14:33:33.594Z,61.00
2022-11-20T14:34:55.632Z,60.90
2022-11-20T14:36:18.592Z,65.28
2022-11-20T14:37:40.231Z,65.63
2022-11-20T14:39:00.581Z,62.92
2022-11-20T14:40:29.475Z,62.88
2022-11-20T14:41:52.355Z,68.18
2022-11-20T14:43:22.326Z,67.05
2022-11-20T14:44:43.451Z,63.97
2022-11-20T14:46:06.321Z,63.80
2022-11-20T14:47:30.712Z,63.65
2022-11-20T14:48:52.986Z,79.55
2022-11-20T14:50:19.146Z,66.75
2022-11-20T14:51:40.907Z,65.35
2022-11-20T14:53:02.111Z,60.95
2022-11-20T14:54:23.445Z,66.70
2022-11-20T14:55:44.323Z,65.75
2022-11-20T14:57:05.281Z,65.05
2022-11-20T14:58:27.400Z,59.97
2022-11-20T14:59:50.495Z,63.35
2022-11-20T15:01:47.083Z,66.90
2022-11-20T15:03:47.232Z,64.15
2022-11-20T15:05:24.704Z,68.75
2022-11-20T15:07:31.022Z,66.07
2022-11-20T15:08:55.226Z,72.10
2022-11-20T15:10:22.558Z,72.15
2022-11-20T15:11:54.172Z,67.60
2022-11-20T15:13:17.437Z,70.95
2022-11-20T15:14:38.149Z,71.22
2022-11-20T15:15:59.467Z,68.40
2022-11-20T15:17:20.119Z,70.55
2022-11-20T15:18:41.785Z,74.32
2022-11-20T15:21:24.173Z,65.72
2022-11-20T15:22:44.522Z,67.90
2022-11-20T15:24:09.608Z,72.80
2022-11-20T15:25:30.312Z,65.88
2022-11-20T15:26:50.881Z,71.55
2022-11-20T15:28:17.581Z,69.57
2022-11-20T15:29:38.192Z,70.32
2022-11-20T15:30:58.753Z,58.97
2022-11-20T15:32:19.312Z,57.72
2022-11-20T15:35:01.045Z,69.45
2022-11-20T15:36:21.254Z,64.95
2022-11-20T15:37:43.536Z,62.50
2022-11-20T15:39:04.160Z,73.72
2022-11-20T15:40:24.786Z,67.35
2022-11-20T15:41:45.113Z,76.03
2022-11-20T15:43:11.358Z,72.40
2022-11-20T15:44:33.740Z,83.80
2022-11-20T15:46:00.038Z,65.90
2022-11-20T15:47:21.904Z,68.32
2022-11-20T15:50:11.934Z,61.95
2022-11-20T15:51:34.777Z,68.50
2022-11-20T15:52:56.873Z,74.80
2022-11-20T15:54:19.066Z,62.50
2022-11-20T15:55:39.520Z,67.97
2022-11-20T15:57:00.239Z,62.03
2022-11-20T15:58:20.940Z,65.57
2022-11-20T15:59:41.587Z,66.78
2022-11-20T16:01:02.050Z,62.05
2022-11-20T16:02:22.526Z,65.47
2022-11-20T16:03:43.132Z,60.80
2022-11-20T16:05:04.551Z,65.03
2022-11-20T16:06:24.959Z,62.95
2022-11-20T16:07:45.557Z,70.07
2022-11-20T16:09:07.799Z,61.97
2022-11-20T16:10:28.579Z,68.70
2022-11-20T16:11:48.965Z,66.05
2022-11-20T16:13:14.320Z,71.30
2022-11-20T16:14:34.951Z,69.55
2022-11-20T16:15:58.940Z,69.05
2022-11-20T16:17:19.588Z,62.60
2022-11-20T16:18:40.252Z,61.92
2022-11-20T16:20:00.775Z,63.38
2022-11-20T16:21:21.572Z,56.08
2022-11-20T16:22:42.055Z,56.22
2022-11-20T16:24:04.942Z,60.95
2022-11-20T16:25:28.024Z,69.10
2022-11-20T16:26:48.433Z,57.10
2022-11-20T16:28:09.814Z,61.65
2022-11-20T16:29:31.774Z,70.32
2022-11-20T16:30:52.315Z,58.45
2022-11-20T16:32:12.957Z,56.25
2022-11-20T16:33:33.209Z,60.33
2022-11-20T16:34:53.660Z,68.50
2022-11-20T16:36:15.459Z,69.85
2022-11-20T16:37:36.076Z,93.68
2022-11-20T16:38:57.892Z,96.30
2022-11-20T16:40:18.572Z,86.32
2022-11-20T16:41:40.541Z,62.85
2022-11-20T16:43:08.999Z,58.95
2022-11-20T16:44:30.077Z,69.90
2022-11-20T16:45:50.277Z,55.63
2022-11-20T16:47:10.746Z,61.28
2022-11-20T16:48:31.255Z,67.47
2022-11-20T16:49:52.136Z,66.82
2022-11-20T16:51:13.222Z,68.60
2022-11-20T16:52:33.812Z,61.47
2022-11-20T16:53:55.964Z,69.57
2022-11-20T16:55:16.754Z,75.35
2022-11-20T16:56:37.590Z,65.93
2022-11-20T16:57:59.267Z,58.47
2022-11-20T16:59:19.889Z,69.93
2022-11-20T17:00:40.940Z,64.45
2022-11-20T17:02:01.582Z,55.15
2022-11-20T17:03:22.260Z,73.53
2022-11-20T17:04:43.259Z,54.38
2022-11-20T17:06:11.691Z,57.00
2022-11-20T17:07:31.963Z,58.88
2022-11-20T17:08:54.379Z,57.00
2022-11-20T17:10:14.727Z,62.13
2022-11-20T17:11:35.548Z,65.80
2022-11-20T17:12:56.376Z,57.50
2022-11-20T17:14:18.391Z,88.80
2022-11-20T17:15:39.137Z,71.90
2022-11-20T17:16:59.826Z,74.05
2022-11-20T17:18:20.450Z,54.83
2022-11-20T17:19:40.655Z,55.35
2022-11-20T17:21:01.600Z,60.28
2022-11-20T17:22:22.140Z,58.65
2022-11-20T17:23:44.252Z,51.05
2022-11-20T17:25:05.708Z,54.92
2022-11-20T17:26:26.073Z,52.28
2022-11-20T17:27:46.797Z,47.67
2022-11-20T17:29:09.803Z,57.83
2022-11-20T17:30:31.914Z,48.88
2022-11-20T17:31:54.080Z,54.67
2022-11-20T17:33:14.787Z,47.08
2022-11-20T17:34:35.543Z,48.53
2022-11-20T17:35:56.473Z,49.75
2022-11-20T17:37:16.928Z,57.40
2022-11-20T17:38:37.721Z,49.10
2022-11-20T17:39:59.480Z,51.42
2022-11-20T17:42:41.358Z,44.63
2022-11-20T17:44:01.913Z,52.92
2022-11-20T17:45:22.375Z,48.25
2022-11-20T17:46:44.298Z,51.47
2022-11-20T17:48:05.642Z,47.72
2022-11-20T17:49:26.504Z,47.92
2022-11-20T17:50:47.117Z,46.00
2022-11-20T17:52:07.346Z,44.42
2022-11-20T17:53:28.196Z,43.83
2022-11-20T17:54:48.583Z,45.13
2022-11-20T17:56:09.355Z,44.17
2022-11-20T17:57:29.888Z,46.15
2022-11-20T17:58:50.484Z,41.63
2022-11-20T18:00:12.272Z,42.38
2022-11-20T18:01:33.088Z,42.58
2022-11-20T18:02:55.558Z,43.05
2022-11-20T18:04:16.238Z,43.25
2022-11-20T18:05:36.760Z,46.22
2022-11-20T18:06:57.083Z,55.15
2022-11-20T18:08:17.681Z,39.72
2022-11-20T18:09:38.396Z,39.95
2022-11-20T18:10:59.045Z,41.43
2022-11-20T18:12:19.866Z,38.50
2022-11-20T18:13:44.966Z,39.30
2022-11-20T18:15:08.560Z,38.90
2022-11-20T18:16:30.116Z,39.22
2022-11-20T18:17:50.426Z,41.50